sensor_id;sensor_type;location;lat;lon;timestamp;P1;durP1;ratioP1;P2;durP2;ratioP2
12950;SDS011;6540;50.858;7.232;2023-08-20T00:01:15;1.93;;;1.80;;
12950;SDS011;6540;50.858;7.232;2023-08-20T00:03:46;2.53;;;1.87;;
12950;SDS011;6540;50.858;7.232;2023-08-20T00:06:13;2.40;;;1.83;;
12950;SDS011;6540;50.858;7.232;2023-08-20T00:08:39;1.70;;;1.53;;
12950;SDS011;6540;50.858;7.232;2023-08-20T00:11:04;1.97;;;1.60;;
12950;SDS011;6540;50.858;7.232;2023-08-20T00:13:30;2.27;;;1.77;;
12950;SDS011;6540;50.858;7.232;2023-08-20T00:15:56;2.20;;;2.00;;
12950;SDS011;6540;50.858;7.232;2023-08-20T00:18:21;3.37;;;2.10;;
12950;SDS011;6540;50.858;7.232;2023-08-20T00:20:47;2.20;;;1.97;;
12950;SDS011;6540;50.858;7.232;2023-08-20T00:23:12;1.77;;;1.67;;
12950;SDS011;6540;50.858;7.232;2023-08-20T00:25:38;1.60;;;1.50;;
12950;SDS011;6540;50.858;7.232;2023-08-20T00:28:04;0.87;;;0.87;;
12950;SDS011;6540;50.858;7.232;2023-08-20T00:30:29;1.93;;;1.60;;
12950;SDS011;6540;50.858;7.232;2023-08-20T00:32:55;2.70;;;1.83;;
12950;SDS011;6540;50.858;7.232;2023-08-20T00:35:20;2.63;;;2.20;;
12950;SDS011;6540;50.858;7.232;2023-08-20T00:37:46;1.83;;;1.73;;
12950;SDS011;6540;50.858;7.232;2023-08-20T00:40:12;1.60;;;1.40;;
12950;SDS011;6540;50.858;7.232;2023-08-20T00:42:38;2.57;;;1.90;;
12950;SDS011;6540;50.858;7.232;2023-08-20T00:45:03;2.33;;;2.13;;
12950;SDS011;6540;50.858;7.232;2023-08-20T00:47:29;1.87;;;1.70;;
12950;SDS011;6540;50.858;7.232;2023-08-20T00:49:55;1.73;;;1.47;;
12950;SDS011;6540;50.858;7.232;2023-08-20T00:52:20;3.07;;;2.47;;
12950;SDS011;6540;50.858;7.232;2023-08-20T00:54:47;2.10;;;1.90;;
12950;SDS011;6540;50.858;7.232;2023-08-20T00:57:14;3.17;;;2.23;;
12950;SDS011;6540;50.858;7.232;2023-08-20T00:59:40;2.17;;;1.97;;
12950;SDS011;6540;50.858;7.232;2023-08-20T01:02:06;2.17;;;1.97;;
12950;SDS011;6540;50.858;7.232;2023-08-20T01:04:32;2.23;;;1.90;;
12950;SDS011;6540;50.858;7.232;2023-08-20T01:12:22;2.17;;;1.97;;
12950;SDS011;6540;50.858;7.232;2023-08-20T01:14:49;3.63;;;2.50;;
12950;SDS011;6540;50.858;7.232;2023-08-20T01:17:14;1.57;;;1.47;;
12950;SDS011;6540;50.858;7.232;2023-08-20T01:19:40;1.77;;;1.67;;
12950;SDS011;6540;50.858;7.232;2023-08-20T01:30:53;1.43;;;1.30;;
12950;SDS011;6540;50.858;7.232;2023-08-20T01:33:20;1.73;;;1.43;;
12950;SDS011;6540;50.858;7.232;2023-08-20T01:35:46;2.20;;;2.00;;
12950;SDS011;6540;50.858;7.232;2023-08-20T01:38:11;1.97;;;1.77;;
12950;SDS011;6540;50.858;7.232;2023-08-20T01:40:36;2.97;;;2.20;;
12950;SDS011;6540;50.858;7.232;2023-08-20T01:43:02;1.60;;;1.50;;
12950;SDS011;6540;50.858;7.232;2023-08-20T01:45:27;2.40;;;1.70;;
12950;SDS011;6540;50.858;7.232;2023-08-20T01:47:52;2.27;;;2.07;;
12950;SDS011;6540;50.858;7.232;2023-08-20T01:50:18;3.17;;;2.00;;
12950;SDS011;6540;50.858;7.232;2023-08-20T01:52:44;2.20;;;1.57;;
12950;SDS011;6540;50.858;7.232;2023-08-20T01:55:09;1.63;;;1.53;;
12950;SDS011;6540;50.858;7.232;2023-08-20T01:57:35;2.07;;;1.97;;
12950;SDS011;6540;50.858;7.232;2023-08-20T02:00:01;1.70;;;1.60;;
12950;SDS011;6540;50.858;7.232;2023-08-20T02:02:26;2.03;;;1.70;;
12950;SDS011;6540;50.858;7.232;2023-08-20T02:04:52;1.77;;;1.53;;
12950;SDS011;6540;50.858;7.232;2023-08-20T02:07:17;1.40;;;1.30;;
12950;SDS011;6540;50.858;7.232;2023-08-20T02:09:42;2.07;;;1.60;;
12950;SDS011;6540;50.858;7.232;2023-08-20T02:12:08;3.47;;;1.97;;
12950;SDS011;6540;50.858;7.232;2023-08-20T02:14:34;1.87;;;1.53;;
12950;SDS011;6540;50.858;7.232;2023-08-20T02:17:00;3.33;;;1.63;;
12950;SDS011;6540;50.858;7.232;2023-08-20T02:19:26;1.80;;;1.63;;
12950;SDS011;6540;50.858;7.232;2023-08-20T02:21:52;1.67;;;1.50;;
12950;SDS011;6540;50.858;7.232;2023-08-20T02:24:18;2.00;;;1.60;;
12950;SDS011;6540;50.858;7.232;2023-08-20T02:26:43;2.20;;;1.53;;
12950;SDS011;6540;50.858;7.232;2023-08-20T02:29:08;2.27;;;1.50;;
12950;SDS011;6540;50.858;7.232;2023-08-20T02:31:34;1.53;;;1.43;;
12950;SDS011;6540;50.858;7.232;2023-08-20T02:34:00;1.23;;;1.13;;
12950;SDS011;6540;50.858;7.232;2023-08-20T02:36:25;2.40;;;1.93;;
12950;SDS011;6540;50.858;7.232;2023-08-20T02:38:51;1.57;;;1.40;;
12950;SDS011;6540;50.858;7.232;2023-08-20T02:41:16;1.37;;;1.27;;
12950;SDS011;6540;50.858;7.232;2023-08-20T02:43:41;1.70;;;1.60;;
12950;SDS011;6540;50.858;7.232;2023-08-20T02:46:06;1.60;;;1.50;;
12950;SDS011;6540;50.858;7.232;2023-08-20T02:48:32;2.00;;;1.53;;
12950;SDS011;6540;50.858;7.232;2023-08-20T02:50:57;1.57;;;1.47;;
12950;SDS011;6540;50.858;7.232;2023-08-20T02:53:23;1.60;;;1.40;;
12950;SDS011;6540;50.858;7.232;2023-08-20T02:55:48;1.80;;;1.70;;
12950;SDS011;6540;50.858;7.232;2023-08-20T02:58:14;1.87;;;1.77;;
12950;SDS011;6540;50.858;7.232;2023-08-20T03:00:39;2.47;;;1.67;;
12950;SDS011;6540;50.858;7.232;2023-08-20T03:03:06;1.67;;;1.30;;
12950;SDS011;6540;50.858;7.232;2023-08-20T03:05:33;1.20;;;1.10;;
12950;SDS011;6540;50.858;7.232;2023-08-20T03:07:59;2.27;;;1.70;;
12950;SDS011;6540;50.858;7.232;2023-08-20T03:10:25;1.63;;;1.53;;
12950;SDS011;6540;50.858;7.232;2023-08-20T03:12:52;1.40;;;1.30;;
12950;SDS011;6540;50.858;7.232;2023-08-20T03:15:17;1.47;;;1.33;;
12950;SDS011;6540;50.858;7.232;2023-08-20T03:17:42;3.90;;;1.50;;
12950;SDS011;6540;50.858;7.232;2023-08-20T03:20:08;1.17;;;1.13;;
12950;SDS011;6540;50.858;7.232;2023-08-20T03:22:35;1.70;;;1.60;;
12950;SDS011;6540;50.858;7.232;2023-08-20T03:25:01;1.60;;;1.43;;
12950;SDS011;6540;50.858;7.232;2023-08-20T03:27:27;1.33;;;1.23;;
12950;SDS011;6540;50.858;7.232;2023-08-20T03:29:52;2.00;;;1.57;;
12950;SDS011;6540;50.858;7.232;2023-08-20T03:32:18;1.30;;;1.20;;
12950;SDS011;6540;50.858;7.232;2023-08-20T03:34:43;1.70;;;1.40;;
12950;SDS011;6540;50.858;7.232;2023-08-20T03:37:08;1.47;;;1.27;;
12950;SDS011;6540;50.858;7.232;2023-08-20T03:39:34;2.30;;;1.67;;
12950;SDS011;6540;50.858;7.232;2023-08-20T03:41:59;1.10;;;1.03;;
12950;SDS011;6540;50.858;7.232;2023-08-20T03:44:24;1.20;;;1.10;;
12950;SDS011;6540;50.858;7.232;2023-08-20T03:46:50;1.50;;;1.37;;
12950;SDS011;6540;50.858;7.232;2023-08-20T03:49:15;1.07;;;1.03;;
12950;SDS011;6540;50.858;7.232;2023-08-20T03:51:40;1.27;;;1.17;;
12950;SDS011;6540;50.858;7.232;2023-08-20T03:54:07;1.40;;;1.30;;
12950;SDS011;6540;50.858;7.232;2023-08-20T03:56:33;1.40;;;1.30;;
12950;SDS011;6540;50.858;7.232;2023-08-20T03:58:58;1.30;;;1.20;;
12950;SDS011;6540;50.858;7.232;2023-08-20T04:01:23;2.53;;;1.40;;
12950;SDS011;6540;50.858;7.232;2023-08-20T04:03:49;1.20;;;1.20;;
12950;SDS011;6540;50.858;7.232;2023-08-20T04:06:15;1.60;;;1.50;;
12950;SDS011;6540;50.858;7.232;2023-08-20T04:08:40;1.40;;;1.30;;
12950;SDS011;6540;50.858;7.232;2023-08-20T04:11:06;2.73;;;1.43;;
12950;SDS011;6540;50.858;7.232;2023-08-20T04:13:32;2.43;;;1.67;;
12950;SDS011;6540;50.858;7.232;2023-08-20T04:15:57;1.90;;;1.53;;
12950;SDS011;6540;50.858;7.232;2023-08-20T04:18:23;1.40;;;1.30;;
12950;SDS011;6540;50.858;7.232;2023-08-20T04:20:51;1.60;;;1.50;;
12950;SDS011;6540;50.858;7.232;2023-08-20T04:23:17;1.07;;;1.03;;
12950;SDS011;6540;50.858;7.232;2023-08-20T04:25:44;1.83;;;1.43;;
12950;SDS011;6540;50.858;7.232;2023-08-20T04:28:10;3.00;;;1.60;;
12950;SDS011;6540;50.858;7.232;2023-08-20T04:30:37;1.57;;;1.47;;
12950;SDS011;6540;50.858;7.232;2023-08-20T04:33:03;1.33;;;1.20;;
12950;SDS011;6540;50.858;7.232;2023-08-20T04:35:29;1.27;;;1.10;;
12950;SDS011;6540;50.858;7.232;2023-08-20T04:37:54;1.30;;;1.20;;
12950;SDS011;6540;50.858;7.232;2023-08-20T04:40:20;1.60;;;1.47;;
12950;SDS011;6540;50.858;7.232;2023-08-20T04:42:45;1.20;;;1.10;;
12950;SDS011;6540;50.858;7.232;2023-08-20T04:45:10;1.60;;;1.37;;
12950;SDS011;6540;50.858;7.232;2023-08-20T04:47:36;1.63;;;1.53;;
12950;SDS011;6540;50.858;7.232;2023-08-20T04:50:03;1.57;;;1.47;;
12950;SDS011;6540;50.858;7.232;2023-08-20T04:52:29;1.70;;;1.60;;
12950;SDS011;6540;50.858;7.232;2023-08-20T04:54:55;1.57;;;1.47;;
12950;SDS011;6540;50.858;7.232;2023-08-20T04:57:20;2.57;;;1.53;;
12950;SDS011;6540;50.858;7.232;2023-08-20T04:59:45;1.60;;;1.50;;
12950;SDS011;6540;50.858;7.232;2023-08-20T05:02:11;1.90;;;1.50;;
12950;SDS011;6540;50.858;7.232;2023-08-20T05:04:37;1.87;;;1.77;;
12950;SDS011;6540;50.858;7.232;2023-08-20T05:07:03;1.37;;;1.23;;
12950;SDS011;6540;50.858;7.232;2023-08-20T05:09:29;1.57;;;1.47;;
12950;SDS011;6540;50.858;7.232;2023-08-20T05:11:55;1.30;;;1.20;;
12950;SDS011;6540;50.858;7.232;2023-08-20T05:14:20;2.00;;;1.90;;
12950;SDS011;6540;50.858;7.232;2023-08-20T05:16:45;1.33;;;1.23;;
12950;SDS011;6540;50.858;7.232;2023-08-20T05:19:10;1.63;;;1.47;;
12950;SDS011;6540;50.858;7.232;2023-08-20T05:21:36;1.40;;;1.30;;
12950;SDS011;6540;50.858;7.232;2023-08-20T05:24:01;2.10;;;1.53;;
12950;SDS011;6540;50.858;7.232;2023-08-20T05:26:27;2.10;;;1.57;;
12950;SDS011;6540;50.858;7.232;2023-08-20T05:28:52;1.47;;;1.37;;
12950;SDS011;6540;50.858;7.232;2023-08-20T05:31:18;2.87;;;1.90;;
12950;SDS011;6540;50.858;7.232;2023-08-20T05:33:43;1.70;;;1.60;;
12950;SDS011;6540;50.858;7.232;2023-08-20T05:36:08;1.23;;;1.13;;
12950;SDS011;6540;50.858;7.232;2023-08-20T05:38:34;2.47;;;1.50;;
12950;SDS011;6540;50.858;7.232;2023-08-20T05:40:59;1.40;;;1.30;;
12950;SDS011;6540;50.858;7.232;2023-08-20T05:43:24;1.20;;;1.17;;
12950;SDS011;6540;50.858;7.232;2023-08-20T05:45:50;1.43;;;1.33;;
12950;SDS011;6540;50.858;7.232;2023-08-20T05:48:15;1.77;;;1.57;;
12950;SDS011;6540;50.858;7.232;2023-08-20T05:50:41;1.23;;;1.17;;
12950;SDS011;6540;50.858;7.232;2023-08-20T05:53:06;1.60;;;1.50;;
12950;SDS011;6540;50.858;7.232;2023-08-20T05:55:31;1.17;;;1.07;;
12950;SDS011;6540;50.858;7.232;2023-08-20T05:57:57;2.00;;;1.90;;
12950;SDS011;6540;50.858;7.232;2023-08-20T06:00:22;1.67;;;1.40;;
12950;SDS011;6540;50.858;7.232;2023-08-20T06:02:47;1.33;;;1.23;;
12950;SDS011;6540;50.858;7.232;2023-08-20T06:05:13;1.70;;;1.50;;
12950;SDS011;6540;50.858;7.232;2023-08-20T06:07:38;1.67;;;1.57;;
12950;SDS011;6540;50.858;7.232;2023-08-20T06:10:05;2.30;;;1.50;;
12950;SDS011;6540;50.858;7.232;2023-08-20T06:12:31;1.97;;;1.77;;
12950;SDS011;6540;50.858;7.232;2023-08-20T06:14:57;1.63;;;1.53;;
12950;SDS011;6540;50.858;7.232;2023-08-20T06:17:22;2.03;;;1.77;;
12950;SDS011;6540;50.858;7.232;2023-08-20T06:19:48;2.27;;;1.70;;
12950;SDS011;6540;50.858;7.232;2023-08-20T06:22:13;1.40;;;1.30;;
12950;SDS011;6540;50.858;7.232;2023-08-20T06:24:39;2.20;;;1.60;;
12950;SDS011;6540;50.858;7.232;2023-08-20T06:27:04;2.23;;;1.67;;
12950;SDS011;6540;50.858;7.232;2023-08-20T06:29:30;2.20;;;1.80;;
12950;SDS011;6540;50.858;7.232;2023-08-20T06:31:55;1.60;;;1.50;;
12950;SDS011;6540;50.858;7.232;2023-08-20T06:34:20;1.27;;;1.20;;
12950;SDS011;6540;50.858;7.232;2023-08-20T06:36:46;1.70;;;1.60;;
12950;SDS011;6540;50.858;7.232;2023-08-20T06:39:12;1.80;;;1.70;;
12950;SDS011;6540;50.858;7.232;2023-08-20T06:41:37;2.67;;;1.93;;
12950;SDS011;6540;50.858;7.232;2023-08-20T06:44:03;1.83;;;1.60;;
12950;SDS011;6540;50.858;7.232;2023-08-20T06:46:28;2.27;;;2.07;;
12950;SDS011;6540;50.858;7.232;2023-08-20T06:48:54;2.17;;;1.97;;
12950;SDS011;6540;50.858;7.232;2023-08-20T06:51:20;3.33;;;1.83;;
12950;SDS011;6540;50.858;7.232;2023-08-20T06:53:46;1.60;;;1.50;;
12950;SDS011;6540;50.858;7.232;2023-08-20T06:56:12;2.00;;;1.83;;
12950;SDS011;6540;50.858;7.232;2023-08-20T06:58:38;5.20;;;2.57;;
12950;SDS011;6540;50.858;7.232;2023-08-20T07:01:04;2.10;;;1.90;;
12950;SDS011;6540;50.858;7.232;2023-08-20T07:03:37;2.33;;;1.80;;
12950;SDS011;6540;50.858;7.232;2023-08-20T07:06:03;2.17;;;2.00;;
12950;SDS011;6540;50.858;7.232;2023-08-20T07:08:29;2.17;;;1.90;;
12950;SDS011;6540;50.858;7.232;2023-08-20T07:10:54;2.40;;;1.83;;
12950;SDS011;6540;50.858;7.232;2023-08-20T07:13:20;2.43;;;2.10;;
12950;SDS011;6540;50.858;7.232;2023-08-20T07:15:45;2.73;;;2.47;;
12950;SDS011;6540;50.858;7.232;2023-08-20T07:18:10;2.30;;;1.80;;
12950;SDS011;6540;50.858;7.232;2023-08-20T07:20:38;2.50;;;2.30;;
12950;SDS011;6540;50.858;7.232;2023-08-20T07:23:04;2.07;;;1.87;;
12950;SDS011;6540;50.858;7.232;2023-08-20T07:25:29;1.73;;;1.63;;
12950;SDS011;6540;50.858;7.232;2023-08-20T07:27:54;2.30;;;2.00;;
12950;SDS011;6540;50.858;7.232;2023-08-20T07:30:24;2.77;;;2.10;;
12950;SDS011;6540;50.858;7.232;2023-08-20T07:32:52;4.03;;;2.30;;
12950;SDS011;6540;50.858;7.232;2023-08-20T07:35:17;2.87;;;2.40;;
12950;SDS011;6540;50.858;7.232;2023-08-20T07:37:43;2.80;;;2.23;;
12950;SDS011;6540;50.858;7.232;2023-08-20T07:40:09;2.40;;;2.20;;
12950;SDS011;6540;50.858;7.232;2023-08-20T07:42:36;2.27;;;2.03;;
12950;SDS011;6540;50.858;7.232;2023-08-20T07:45:01;4.00;;;2.50;;
12950;SDS011;6540;50.858;7.232;2023-08-20T07:47:27;3.50;;;2.37;;
12950;SDS011;6540;50.858;7.232;2023-08-20T07:49:54;2.17;;;1.70;;
12950;SDS011;6540;50.858;7.232;2023-08-20T07:52:19;2.27;;;2.07;;
12950;SDS011;6540;50.858;7.232;2023-08-20T07:54:45;2.90;;;2.07;;
12950;SDS011;6540;50.858;7.232;2023-08-20T07:57:10;3.30;;;2.63;;
12950;SDS011;6540;50.858;7.232;2023-08-20T07:59:36;2.67;;;2.37;;
12950;SDS011;6540;50.858;7.232;2023-08-20T08:02:03;2.40;;;2.20;;
12950;SDS011;6540;50.858;7.232;2023-08-20T08:04:29;2.87;;;2.47;;
12950;SDS011;6540;50.858;7.232;2023-08-20T08:06:54;2.83;;;2.20;;
12950;SDS011;6540;50.858;7.232;2023-08-20T08:09:30;2.40;;;2.20;;
12950;SDS011;6540;50.858;7.232;2023-08-20T08:11:56;2.10;;;1.93;;
12950;SDS011;6540;50.858;7.232;2023-08-20T08:14:22;2.57;;;2.30;;
12950;SDS011;6540;50.858;7.232;2023-08-20T08:16:48;2.37;;;2.13;;
12950;SDS011;6540;50.858;7.232;2023-08-20T08:19:14;2.37;;;2.10;;
12950;SDS011;6540;50.858;7.232;2023-08-20T08:21:41;1.93;;;1.80;;
12950;SDS011;6540;50.858;7.232;2023-08-20T08:24:07;2.10;;;1.90;;
12950;SDS011;6540;50.858;7.232;2023-08-20T08:26:33;2.30;;;2.10;;
12950;SDS011;6540;50.858;7.232;2023-08-20T08:28:59;2.47;;;2.27;;
12950;SDS011;6540;50.858;7.232;2023-08-20T08:31:24;2.60;;;2.17;;
12950;SDS011;6540;50.858;7.232;2023-08-20T08:33:50;2.33;;;2.13;;
12950;SDS011;6540;50.858;7.232;2023-08-20T08:36:15;2.50;;;2.23;;
12950;SDS011;6540;50.858;7.232;2023-08-20T08:38:42;2.70;;;2.20;;
12950;SDS011;6540;50.858;7.232;2023-08-20T08:41:10;2.53;;;2.33;;
12950;SDS011;6540;50.858;7.232;2023-08-20T08:43:37;2.27;;;2.07;;
12950;SDS011;6540;50.858;7.232;2023-08-20T08:46:02;2.87;;;2.20;;
12950;SDS011;6540;50.858;7.232;2023-08-20T08:48:39;1.80;;;1.70;;
12950;SDS011;6540;50.858;7.232;2023-08-20T08:51:06;2.10;;;1.90;;
12950;SDS011;6540;50.858;7.232;2023-08-20T08:53:32;2.40;;;2.00;;
12950;SDS011;6540;50.858;7.232;2023-08-20T08:55:58;2.10;;;1.90;;
12950;SDS011;6540;50.858;7.232;2023-08-20T08:58:24;1.97;;;1.77;;
12950;SDS011;6540;50.858;7.232;2023-08-20T09:00:50;1.73;;;1.63;;
12950;SDS011;6540;50.858;7.232;2023-08-20T09:03:15;2.17;;;1.77;;
12950;SDS011;6540;50.858;7.232;2023-08-20T09:08:35;1.70;;;1.60;;
12950;SDS011;6540;50.858;7.232;2023-08-20T09:11:01;1.60;;;1.50;;
12950;SDS011;6540;50.858;7.232;2023-08-20T09:16:07;1.87;;;1.77;;
12950;SDS011;6540;50.858;7.232;2023-08-20T09:18:39;2.27;;;2.10;;
12950;SDS011;6540;50.858;7.232;2023-08-20T09:21:12;1.50;;;1.27;;
12950;SDS011;6540;50.858;7.232;2023-08-20T09:23:38;2.63;;;2.10;;
12950;SDS011;6540;50.858;7.232;2023-08-20T09:26:05;1.60;;;1.50;;
12950;SDS011;6540;50.858;7.232;2023-08-20T09:28:40;1.43;;;1.33;;
12950;SDS011;6540;50.858;7.232;2023-08-20T09:31:07;1.50;;;1.40;;
12950;SDS011;6540;50.858;7.232;2023-08-20T09:33:32;1.83;;;1.50;;
12950;SDS011;6540;50.858;7.232;2023-08-20T09:35:57;2.20;;;2.00;;
12950;SDS011;6540;50.858;7.232;2023-08-20T09:38:23;2.00;;;1.80;;
12950;SDS011;6540;50.858;7.232;2023-08-20T09:40:50;2.17;;;1.93;;
12950;SDS011;6540;50.858;7.232;2023-08-20T09:43:17;2.33;;;1.90;;
12950;SDS011;6540;50.858;7.232;2023-08-20T09:45:43;2.17;;;1.93;;
12950;SDS011;6540;50.858;7.232;2023-08-20T09:48:11;2.57;;;2.37;;
12950;SDS011;6540;50.858;7.232;2023-08-20T09:50:42;1.83;;;1.73;;
12950;SDS011;6540;50.858;7.232;2023-08-20T09:53:17;3.40;;;2.27;;
12950;SDS011;6540;50.858;7.232;2023-08-20T09:56:01;2.97;;;2.17;;
12950;SDS011;6540;50.858;7.232;2023-08-20T09:58:35;2.53;;;2.27;;
12950;SDS011;6540;50.858;7.232;2023-08-20T10:01:02;2.63;;;2.40;;
12950;SDS011;6540;50.858;7.232;2023-08-20T10:03:28;5.40;;;2.90;;
12950;SDS011;6540;50.858;7.232;2023-08-20T10:05:54;2.30;;;2.00;;
12950;SDS011;6540;50.858;7.232;2023-08-20T10:08:23;2.17;;;1.67;;
12950;SDS011;6540;50.858;7.232;2023-08-20T10:10:49;3.17;;;2.33;;
12950;SDS011;6540;50.858;7.232;2023-08-20T10:13:14;2.53;;;2.03;;
12950;SDS011;6540;50.858;7.232;2023-08-20T10:15:40;1.93;;;1.83;;
12950;SDS011;6540;50.858;7.232;2023-08-20T10:18:07;2.17;;;2.00;;
12950;SDS011;6540;50.858;7.232;2023-08-20T10:20:32;2.50;;;2.10;;
12950;SDS011;6540;50.858;7.232;2023-08-20T10:23:02;2.67;;;2.17;;
12950;SDS011;6540;50.858;7.232;2023-08-20T10:25:29;2.07;;;1.90;;
12950;SDS011;6540;50.858;7.232;2023-08-20T10:28:05;2.87;;;2.57;;
12950;SDS011;6540;50.858;7.232;2023-08-20T10:30:36;2.53;;;2.10;;
12950;SDS011;6540;50.858;7.232;2023-08-20T10:33:02;2.20;;;2.00;;
12950;SDS011;6540;50.858;7.232;2023-08-20T10:35:29;3.17;;;2.00;;
12950;SDS011;6540;50.858;7.232;2023-08-20T10:38:13;2.53;;;1.90;;
12950;SDS011;6540;50.858;7.232;2023-08-20T10:40:52;2.70;;;2.30;;
12950;SDS011;6540;50.858;7.232;2023-08-20T10:46:18;2.60;;;2.23;;
12950;SDS011;6540;50.858;7.232;2023-08-20T10:49:00;3.43;;;2.53;;
12950;SDS011;6540;50.858;7.232;2023-08-20T10:59:07;2.80;;;2.50;;
12950;SDS011;6540;50.858;7.232;2023-08-20T11:01:55;3.10;;;2.27;;
12950;SDS011;6540;50.858;7.232;2023-08-20T11:04:25;2.43;;;2.20;;
12950;SDS011;6540;50.858;7.232;2023-08-20T11:06:57;2.33;;;2.00;;
12950;SDS011;6540;50.858;7.232;2023-08-20T11:09:23;2.33;;;2.13;;
12950;SDS011;6540;50.858;7.232;2023-08-20T11:11:50;2.90;;;2.67;;
12950;SDS011;6540;50.858;7.232;2023-08-20T11:14:17;2.50;;;2.30;;
12950;SDS011;6540;50.858;7.232;2023-08-20T11:16:43;2.67;;;2.37;;
12950;SDS011;6540;50.858;7.232;2023-08-20T11:19:09;2.70;;;2.00;;
12950;SDS011;6540;50.858;7.232;2023-08-20T11:21:36;2.57;;;2.37;;
12950;SDS011;6540;50.858;7.232;2023-08-20T11:24:03;2.93;;;2.23;;
12950;SDS011;6540;50.858;7.232;2023-08-20T11:26:29;2.23;;;2.03;;
12950;SDS011;6540;50.858;7.232;2023-08-20T11:28:55;3.57;;;2.50;;
12950;SDS011;6540;50.858;7.232;2023-08-20T11:31:20;3.33;;;2.40;;
12950;SDS011;6540;50.858;7.232;2023-08-20T11:33:46;3.00;;;1.97;;
12950;SDS011;6540;50.858;7.232;2023-08-20T11:36:14;2.30;;;2.10;;
12950;SDS011;6540;50.858;7.232;2023-08-20T11:38:41;3.10;;;2.40;;
12950;SDS011;6540;50.858;7.232;2023-08-20T11:41:07;3.77;;;2.30;;
12950;SDS011;6540;50.858;7.232;2023-08-20T11:43:33;2.50;;;2.00;;
12950;SDS011;6540;50.858;7.232;2023-08-20T11:45:58;2.80;;;2.23;;
12950;SDS011;6540;50.858;7.232;2023-08-20T11:51:02;3.23;;;2.73;;
12950;SDS011;6540;50.858;7.232;2023-08-20T11:53:36;3.60;;;2.57;;
12950;SDS011;6540;50.858;7.232;2023-08-20T11:56:19;2.83;;;2.57;;
12950;SDS011;6540;50.858;7.232;2023-08-20T11:58:50;2.90;;;2.53;;
12950;SDS011;6540;50.858;7.232;2023-08-20T12:01:22;4.50;;;2.63;;
12950;SDS011;6540;50.858;7.232;2023-08-20T12:03:52;2.50;;;2.17;;
12950;SDS011;6540;50.858;7.232;2023-08-20T12:06:21;3.93;;;2.53;;
12950;SDS011;6540;50.858;7.232;2023-08-20T12:08:53;2.33;;;2.13;;
12950;SDS011;6540;50.858;7.232;2023-08-20T12:11:19;2.73;;;2.53;;
12950;SDS011;6540;50.858;7.232;2023-08-20T12:13:51;2.57;;;2.17;;
12950;SDS011;6540;50.858;7.232;2023-08-20T12:16:18;3.23;;;2.47;;
12950;SDS011;6540;50.858;7.232;2023-08-20T12:18:46;4.10;;;2.90;;
12950;SDS011;6540;50.858;7.232;2023-08-20T12:21:12;2.50;;;2.27;;
12950;SDS011;6540;50.858;7.232;2023-08-20T12:23:37;3.00;;;2.30;;
12950;SDS011;6540;50.858;7.232;2023-08-20T12:26:03;3.07;;;2.63;;
12950;SDS011;6540;50.858;7.232;2023-08-20T12:28:29;2.63;;;2.20;;
12950;SDS011;6540;50.858;7.232;2023-08-20T12:30:54;2.60;;;2.40;;
12950;SDS011;6540;50.858;7.232;2023-08-20T12:33:19;2.47;;;2.20;;
12950;SDS011;6540;50.858;7.232;2023-08-20T12:35:57;3.50;;;2.53;;
12950;SDS011;6540;50.858;7.232;2023-08-20T12:38:25;2.63;;;2.43;;
12950;SDS011;6540;50.858;7.232;2023-08-20T12:40:53;3.10;;;2.80;;
12950;SDS011;6540;50.858;7.232;2023-08-20T12:43:19;5.60;;;2.73;;
12950;SDS011;6540;50.858;7.232;2023-08-20T12:45:44;3.00;;;2.80;;
12950;SDS011;6540;50.858;7.232;2023-08-20T12:48:10;4.60;;;2.90;;
12950;SDS011;6540;50.858;7.232;2023-08-20T12:50:35;3.40;;;3.10;;
12950;SDS011;6540;50.858;7.232;2023-08-20T12:53:01;3.63;;;3.30;;
12950;SDS011;6540;50.858;7.232;2023-08-20T12:55:27;3.57;;;2.77;;
12950;SDS011;6540;50.858;7.232;2023-08-20T12:57:56;3.20;;;2.53;;
12950;SDS011;6540;50.858;7.232;2023-08-20T13:00:23;3.13;;;2.60;;
12950;SDS011;6540;50.858;7.232;2023-08-20T13:02:52;3.07;;;2.77;;
12950;SDS011;6540;50.858;7.232;2023-08-20T13:05:19;3.27;;;2.97;;
12950;SDS011;6540;50.858;7.232;2023-08-20T13:07:45;3.13;;;2.77;;
12950;SDS011;6540;50.858;7.232;2023-08-20T13:10:11;3.40;;;3.10;;
12950;SDS011;6540;50.858;7.232;2023-08-20T13:12:37;3.77;;;3.07;;
12950;SDS011;6540;50.858;7.232;2023-08-20T13:15:14;4.57;;;3.27;;
12950;SDS011;6540;50.858;7.232;2023-08-20T13:17:41;3.40;;;2.83;;
12950;SDS011;6540;50.858;7.232;2023-08-20T13:20:06;3.47;;;3.17;;
12950;SDS011;6540;50.858;7.232;2023-08-20T13:22:33;3.27;;;2.80;;
12950;SDS011;6540;50.858;7.232;2023-08-20T13:24:59;3.67;;;3.30;;
12950;SDS011;6540;50.858;7.232;2023-08-20T13:27:24;3.40;;;3.10;;
12950;SDS011;6540;50.858;7.232;2023-08-20T13:29:49;4.50;;;3.13;;
12950;SDS011;6540;50.858;7.232;2023-08-20T13:32:15;3.77;;;2.93;;
12950;SDS011;6540;50.858;7.232;2023-08-20T13:34:40;3.33;;;2.80;;
12950;SDS011;6540;50.858;7.232;2023-08-20T13:37:06;3.43;;;3.13;;
12950;SDS011;6540;50.858;7.232;2023-08-20T13:39:31;4.73;;;3.10;;
12950;SDS011;6540;50.858;7.232;2023-08-20T13:41:57;2.97;;;2.70;;
12950;SDS011;6540;50.858;7.232;2023-08-20T13:44:25;3.33;;;3.03;;
12950;SDS011;6540;50.858;7.232;2023-08-20T13:46:51;3.47;;;2.63;;
12950;SDS011;6540;50.858;7.232;2023-08-20T13:49:16;5.70;;;3.13;;
12950;SDS011;6540;50.858;7.232;2023-08-20T13:51:41;3.77;;;2.63;;
12950;SDS011;6540;50.858;7.232;2023-08-20T13:54:07;4.43;;;3.00;;
12950;SDS011;6540;50.858;7.232;2023-08-20T13:56:35;4.00;;;3.03;;
12950;SDS011;6540;50.858;7.232;2023-08-20T13:59:00;2.33;;;2.13;;
12950;SDS011;6540;50.858;7.232;2023-08-20T14:01:26;2.50;;;2.30;;
12950;SDS011;6540;50.858;7.232;2023-08-20T14:04:01;2.67;;;2.40;;
12950;SDS011;6540;50.858;7.232;2023-08-20T14:06:26;2.57;;;2.23;;
12950;SDS011;6540;50.858;7.232;2023-08-20T14:11:43;2.40;;;2.20;;
12950;SDS011;6540;50.858;7.232;2023-08-20T14:14:08;3.77;;;2.17;;
12950;SDS011;6540;50.858;7.232;2023-08-20T14:16:39;2.50;;;2.30;;
12950;SDS011;6540;50.858;7.232;2023-08-20T14:19:05;3.27;;;2.30;;
12950;SDS011;6540;50.858;7.232;2023-08-20T14:21:30;2.93;;;2.37;;
12950;SDS011;6540;50.858;7.232;2023-08-20T14:23:56;2.40;;;2.13;;
12950;SDS011;6540;50.858;7.232;2023-08-20T14:26:21;2.80;;;2.53;;
12950;SDS011;6540;50.858;7.232;2023-08-20T14:28:48;2.30;;;2.10;;
12950;SDS011;6540;50.858;7.232;2023-08-20T14:31:16;2.43;;;2.23;;
12950;SDS011;6540;50.858;7.232;2023-08-20T14:33:43;2.43;;;2.23;;
12950;SDS011;6540;50.858;7.232;2023-08-20T14:36:09;3.63;;;2.50;;
12950;SDS011;6540;50.858;7.232;2023-08-20T14:38:34;3.63;;;2.70;;
12950;SDS011;6540;50.858;7.232;2023-08-20T14:41:00;3.17;;;2.43;;
12950;SDS011;6540;50.858;7.232;2023-08-20T14:43:26;2.60;;;2.27;;
12950;SDS011;6540;50.858;7.232;2023-08-20T14:45:52;2.17;;;1.97;;
12950;SDS011;6540;50.858;7.232;2023-08-20T14:48:17;3.13;;;2.27;;
12950;SDS011;6540;50.858;7.232;2023-08-20T14:50:45;2.53;;;2.07;;
12950;SDS011;6540;50.858;7.232;2023-08-20T14:53:11;2.07;;;1.97;;
12950;SDS011;6540;50.858;7.232;2023-08-20T14:55:38;2.57;;;2.37;;
12950;SDS011;6540;50.858;7.232;2023-08-20T14:58:04;2.70;;;2.43;;
12950;SDS011;6540;50.858;7.232;2023-08-20T15:00:31;2.60;;;2.40;;
12950;SDS011;6540;50.858;7.232;2023-08-20T15:02:57;2.90;;;2.60;;
12950;SDS011;6540;50.858;7.232;2023-08-20T15:05:23;2.20;;;1.90;;
12950;SDS011;6540;50.858;7.232;2023-08-20T15:07:49;2.77;;;2.10;;
12950;SDS011;6540;50.858;7.232;2023-08-20T15:10:14;2.23;;;2.03;;
12950;SDS011;6540;50.858;7.232;2023-08-20T15:12:49;2.80;;;2.50;;
12950;SDS011;6540;50.858;7.232;2023-08-20T15:15:14;2.23;;;2.03;;
12950;SDS011;6540;50.858;7.232;2023-08-20T15:17:40;2.50;;;2.30;;
12950;SDS011;6540;50.858;7.232;2023-08-20T15:20:05;2.50;;;2.20;;
12950;SDS011;6540;50.858;7.232;2023-08-20T15:22:34;2.60;;;2.40;;
12950;SDS011;6540;50.858;7.232;2023-08-20T15:25:00;2.77;;;2.43;;
12950;SDS011;6540;50.858;7.232;2023-08-20T15:27:33;2.47;;;2.27;;
12950;SDS011;6540;50.858;7.232;2023-08-20T15:29:59;2.57;;;2.30;;
12950;SDS011;6540;50.858;7.232;2023-08-20T15:32:25;5.20;;;2.73;;